Time;durP1;ratioP1;P1;durP2;ratioP2;P2;SDS_P1;SDS_P2;PMS_P1;PMS_P2;Temp;Humidity;BMP_temperature;BMP_pressure;BME280_temperature;BME280_humidity;BME280_pressure;Samples;Min_cycle;Max_cycle;Signal;HPM_P1;HPM_P2
2022/07/15 00:02:13;;;;;;;2.87;2.60;;;21.00;63.90;;;;;;4991310;28;20643;-69
2022/07/15 00:04:40;;;;;;;4.40;3.03;;;21.10;64.10;;;;;;4976383;28;20736;-69
2022/07/15 00:07:07;;;;;;;4.10;2.50;;;21.00;64.10;;;;;;4978991;28;21225;-68
2022/07/15 00:12:19;;;;;;;3.53;2.50;;;20.90;64.40;;;;;;4990655;28;20649;-68
2022/07/15 00:14:46;;;;;;;2.80;2.60;;;20.80;64.50;;;;;;4991980;28;20621;-68
2022/07/15 00:17:13;;;;;;;2.70;2.50;;;20.90;64.70;;;;;;4992506;28;20625;-68
2022/07/15 00:19:40;;;;;;;3.60;2.80;;;20.80;64.70;;;;;;4990358;28;20761;-69
2022/07/15 00:22:07;;;;;;;3.10;2.90;;;20.80;64.50;;;;;;4992741;28;20627;-68
2022/07/15 00:24:34;;;;;;;5.53;2.70;;;20.80;64.80;;;;;;4992494;28;20660;-68
2022/07/15 00:27:02;;;;;;;3.73;2.20;;;20.80;64.70;;;;;;4990588;28;20642;-68
2022/07/15 00:29:30;;;;;;;2.50;2.37;;;20.70;65.00;;;;;;4990416;28;20758;-69
2022/07/15 00:31:58;;;;;;;2.37;2.27;;;20.60;65.30;;;;;;4991739;28;21113;-68
2022/07/15 00:34:25;;;;;;;2.63;2.37;;;20.60;65.60;;;;;;4991043;28;20726;-65
2022/07/15 00:36:52;;;;;;;3.20;2.70;;;20.50;65.60;;;;;;4992273;28;20694;-69
2022/07/15 00:39:19;;;;;;;3.30;3.00;;;20.40;65.80;;;;;;4989410;28;20642;-68
2022/07/15 00:41:46;;;;;;;2.83;2.63;;;20.40;66.20;;;;;;4990863;28;20689;-68
2022/07/15 00:44:13;;;;;;;3.03;2.33;;;20.40;66.20;;;;;;4989925;28;20650;-68
2022/07/15 00:46:41;;;;;;;5.23;2.97;;;20.40;66.50;;;;;;4991163;28;20662;-69
2022/07/15 00:49:09;;;;;;;3.20;2.40;;;20.50;66.20;;;;;;4987872;28;20635;-67
2022/07/15 00:51:50;;;;;;;2.80;2.57;;;20.50;65.80;;;;;;4991209;28;20657;-68
2022/07/15 00:54:23;;;;;;;3.20;2.40;;;20.50;65.80;;;;;;4990005;28;20737;-68
2022/07/15 00:56:53;;;;;;;2.80;2.60;;;20.40;65.90;;;;;;4992117;28;20591;-68
2022/07/15 00:59:23;;;;;;;2.43;2.23;;;20.30;66.00;;;;;;4985297;28;21225;-67
2022/07/15 01:01:52;;;;;;;2.37;2.00;;;20.20;66.20;;;;;;4979311;28;20678;-68
2022/07/15 01:04:21;;;;;;;6.20;2.60;;;20.10;66.50;;;;;;4979931;28;20964;-68
2022/07/15 01:06:48;;;;;;;2.77;2.50;;;20.10;66.90;;;;;;4989122;28;20738;-65
2022/07/15 01:09:14;;;;;;;2.70;2.20;;;20.10;67.20;;;;;;4990657;28;20597;-68
2022/07/15 01:11:41;;;;;;;4.20;2.37;;;20.00;67.00;;;;;;4991321;28;20630;-68
2022/07/15 01:14:08;;;;;;;2.47;2.27;;;20.00;67.20;;;;;;4992617;28;20634;-68
2022/07/15 01:16:35;;;;;;;2.67;2.47;;;20.00;67.20;;;;;;4990762;28;20680;-69
2022/07/15 01:19:02;;;;;;;2.23;2.10;;;20.00;67.10;;;;;;4988081;28;20647;-68
2022/07/15 01:21:29;;;;;;;3.60;2.70;;;19.90;67.20;;;;;;4991711;28;20657;-67
2022/07/15 01:23:56;;;;;;;2.60;2.40;;;19.80;67.50;;;;;;4991063;28;20734;-68
2022/07/15 01:26:23;;;;;;;2.83;2.60;;;19.80;67.80;;;;;;4992524;28;20615;-68
2022/07/15 01:28:50;;;;;;;2.70;2.50;;;19.80;67.90;;;;;;4986783;28;20638;-66
2022/07/15 01:31:17;;;;;;;3.00;2.70;;;19.80;68.10;;;;;;4987861;28;20700;-68
2022/07/15 01:33:44;;;;;;;2.40;2.20;;;19.70;68.10;;;;;;4989041;28;20630;-68
2022/07/15 01:36:11;;;;;;;7.00;2.60;;;19.70;68.40;;;;;;4989424;28;20612;-68
2022/07/15 01:38:38;;;;;;;5.23;3.13;;;19.60;68.40;;;;;;4987941;28;20646;-69
2022/07/15 01:41:16;;;;;;;3.63;2.37;;;19.60;68.60;;;;;;4991385;28;20662;-68
2022/07/15 01:43:43;;;;;;;2.33;2.13;;;19.70;68.50;;;;;;4991474;28;20674;-68
2022/07/15 01:46:09;;;;;;;3.47;2.53;;;19.70;68.60;;;;;;4990539;28;20639;-68
2022/07/15 01:51:22;;;;;;;2.70;2.50;;;19.50;69.10;;;;;;4991173;28;20729;-66
2022/07/15 01:53:49;;;;;;;2.70;2.37;;;19.50;69.00;;;;;;4972651;28;20713;-68
2022/07/15 01:56:16;;;;;;;3.23;3.03;;;19.50;69.20;;;;;;4988375;28;21078;-68
2022/07/15 01:58:43;;;;;;;3.63;2.77;;;19.40;69.70;;;;;;4989984;28;20721;-68
2022/07/15 02:01:09;;;;;;;3.17;2.97;;;19.40;69.90;;;;;;4989068;28;20690;-68
2022/07/15 02:03:37;;;;;;;3.20;2.90;;;19.40;69.60;;;;;;4991090;28;20725;-68
2022/07/15 02:06:04;;;;;;;8.83;2.90;;;19.40;69.70;;;;;;4991047;28;21179;-68
2022/07/15 02:08:31;;;;;;;6.10;2.83;;;19.50;69.80;;;;;;4972429;28;20716;-66
2022/07/15 02:10:58;;;;;;;2.70;2.47;;;19.50;69.50;;;;;;4991799;28;20649;-68
2022/07/15 02:13:24;;;;;;;2.80;2.60;;;19.50;69.60;;;;;;4990914;28;21186;-65
2022/07/15 02:15:51;;;;;;;2.83;2.60;;;19.30;70.00;;;;;;4989115;28;20642;-68
2022/07/15 02:18:18;;;;;;;4.50;3.23;;;19.30;70.30;;;;;;4971888;28;20737;-69
2022/07/15 02:20:46;;;;;;;2.77;2.57;;;19.30;70.60;;;;;;4990381;28;20657;-68
2022/07/15 02:23:13;;;;;;;3.03;2.83;;;19.30;70.70;;;;;;4990577;28;21048;-68
2022/07/15 02:25:41;;;;;;;4.17;2.70;;;19.30;70.90;;;;;;4972624;28;20758;-68
2022/07/15 02:28:07;;;;;;;6.97;2.87;;;19.20;70.90;;;;;;4989682;28;20706;-68
2022/07/15 02:30:40;;;;;;;6.23;2.77;;;19.20;71.20;;;;;;4988072;28;20701;-68
2022/07/15 02:33:07;;;;;;;3.63;2.90;;;19.10;71.50;;;;;;4972364;28;20660;-68
2022/07/15 02:35:34;;;;;;;5.03;2.40;;;19.10;71.40;;;;;;4990832;28;21146;-68
2022/07/15 02:38:01;;;;;;;4.73;2.13;;;19.10;71.70;;;;;;4987571;28;20681;-68
2022/07/15 02:40:30;;;;;;;2.97;2.50;;;19.00;71.80;;;;;;4990608;28;20741;-68
2022/07/15 02:43:00;;;;;;;2.63;2.20;;;19.00;72.00;;;;;;4989969;28;20649;-68
2022/07/15 02:45:29;;;;;;;7.93;3.13;;;18.90;72.30;;;;;;4991211;28;20638;-68
2022/07/15 02:47:56;;;;;;;2.83;2.40;;;18.90;72.40;;;;;;4988510;28;20726;-68
2022/07/15 02:50:23;;;;;;;2.90;2.70;;;18.90;72.80;;;;;;4990292;28;21233;-67
2022/07/15 02:52:50;;;;;;;4.13;2.50;;;18.90;72.80;;;;;;4988541;28;20643;-68
2022/07/15 02:55:17;;;;;;;2.70;2.47;;;18.80;73.10;;;;;;4988248;28;21016;-68
2022/07/15 02:57:43;;;;;;;2.10;2.00;;;18.80;73.20;;;;;;4989632;28;21190;-67
2022/07/15 03:00:13;;;;;;;4.70;2.50;;;18.70;73.40;;;;;;4989479;28;20720;-69
2022/07/15 03:02:41;;;;;;;3.27;2.33;;;18.70;73.90;;;;;;4994527;28;21009;-68
2022/07/15 03:05:08;;;;;;;4.00;2.77;;;18.60;74.00;;;;;;4994316;28;20654;-69
2022/07/15 03:07:35;;;;;;;2.17;2.07;;;18.60;74.30;;;;;;4992002;28;20630;-68
2022/07/15 03:10:03;;;;;;;2.70;2.50;;;18.60;74.30;;;;;;4991038;28;20659;-68
2022/07/15 03:12:30;;;;;;;3.10;2.80;;;18.60;74.50;;;;;;4993153;28;20654;-68
2022/07/15 03:14:58;;;;;;;3.13;2.40;;;18.60;75.50;;;;;;4994230;28;20621;-68
2022/07/15 03:17:25;;;;;;;9.23;2.73;;;18.50;75.10;;;;;;4992023;28;20990;-68
2022/07/15 03:19:52;;;;;;;3.20;2.87;;;18.50;75.40;;;;;;4993441;28;20642;-68
2022/07/15 03:22:19;;;;;;;2.70;2.50;;;18.50;75.80;;;;;;4974250;28;20682;-68
2022/07/15 03:24:45;;;;;;;3.43;3.13;;;18.40;76.30;;;;;;4994590;28;20683;-68
2022/07/15 03:27:12;;;;;;;3.17;2.67;;;18.40;76.40;;;;;;4991200;28;20638;-68
2022/07/15 03:29:39;;;;;;;2.90;2.70;;;18.40;76.70;;;;;;4990816;28;20658;-68
2022/07/15 03:32:10;;;;;;;2.57;2.47;;;18.40;77.10;;;;;;4993727;28;21035;-68
2022/07/15 03:34:38;;;;;;;8.93;2.83;;;18.40;77.30;;;;;;4993079;28;21131;-69
2022/07/15 03:37:04;;;;;;;5.00;3.13;;;18.50;77.30;;;;;;4977163;28;20629;-70
2022/07/15 03:39:31;;;;;;;4.10;2.83;;;18.60;76.80;;;;;;4984872;28;20639;-69
2022/07/15 03:41:58;;;;;;;2.73;2.47;;;18.70;76.50;;;;;;4993819;28;20673;-69
2022/07/15 03:44:25;;;;;;;3.00;2.80;;;18.70;76.20;;;;;;4974436;28;20753;-69
2022/07/15 03:46:52;;;;;;;3.00;2.70;;;18.70;76.50;;;;;;4992957;28;20603;-69
2022/07/15 03:49:22;;;;;;;2.67;2.53;;;18.60;76.70;;;;;;4990014;28;20655;-69
2022/07/15 03:51:49;;;;;;;2.93;2.60;;;18.80;76.50;;;;;;4991356;28;20641;-69
2022/07/15 03:54:16;;;;;;;3.23;2.63;;;18.90;75.80;;;;;;4992551;28;21225;-68
2022/07/15 03:56:47;;;;;;;5.07;3.00;;;18.80;75.90;;;;;;4990894;28;21022;-69
2022/07/15 03:59:17;;;;;;;2.83;2.50;;;18.80;76.20;;;;;;4992784;28;20674;-68
2022/07/15 04:01:44;;;;;;;2.83;2.40;;;18.90;76.40;;;;;;4975309;28;20619;-69
2022/07/15 04:04:14;;;;;;;2.93;2.63;;;18.90;76.00;;;;;;4990750;28;20714;-68
2022/07/15 04:06:41;;;;;;;3.10;2.90;;;18.90;76.30;;;;;;4992502;28;20587;-70
2022/07/15 04:09:09;;;;;;;2.70;2.47;;;18.90;76.50;;;;;;4990183;28;21015;-69
2022/07/15 04:11:41;;;;;;;2.50;2.30;;;19.10;76.00;;;;;;4992483;28;20662;-66
2022/07/15 04:14:11;;;;;;;3.40;2.93;;;19.20;76.00;;;;;;4990094;28;21217;-66
2022/07/15 04:16:38;;;;;;;2.80;2.70;;;19.40;75.40;;;;;;4992955;28;20710;-67
2022/07/15 04:19:05;;;;;;;3.37;3.07;;;19.60;74.60;;;;;;4990119;28;21070;-67
2022/07/15 04:21:32;;;;;;;3.73;2.70;;;19.70;74.00;;;;;;4975867;28;21218;-68
2022/07/15 04:24:00;;;;;;;5.03;2.70;;;19.80;73.70;;;;;;4992129;28;20630;-68
2022/07/15 04:26:27;;;;;;;4.10;2.90;;;19.80;73.80;;;;;;4993056;28;20625;-68
2022/07/15 04:28:55;;;;;;;4.73;2.80;;;20.00;73.20;;;;;;4982873;28;21195;-68
2022/07/15 04:31:22;;;;;;;8.23;2.70;;;20.10;73.50;;;;;;4972045;28;20659;-64
2022/07/15 04:33:49;;;;;;;5.27;3.07;;;20.30;72.90;;;;;;4985840;28;20615;-68
2022/07/15 04:36:16;;;;;;;7.63;2.57;;;20.40;72.00;;;;;;4990273;28;20631;-67
2022/07/15 04:38:43;;;;;;;2.60;2.50;;;20.40;71.90;;;;;;4990780;28;20722;-69
2022/07/15 04:41:10;;;;;;;3.73;2.30;;;20.40;72.00;;;;;;4989644;28;21057;-67
2022/07/15 04:43:38;;;;;;;6.00;2.50;;;20.40;71.90;;;;;;4990265;28;20629;-69
2022/07/15 04:46:05;;;;;;;4.83;2.70;;;20.30;72.30;;;;;;4989326;28;20681;-67
2022/07/15 04:51:17;;;;;;;4.73;3.20;;;20.40;72.20;;;;;;4990170;28;21301;-67
2022/07/15 04:53:44;;;;;;;5.30;2.67;;;20.60;71.80;;;;;;4991232;28;20627;-67
2022/07/15 04:56:11;;;;;;;4.63;2.70;;;20.70;71.50;;;;;;4990021;28;20643;-70
2022/07/15 04:58:38;;;;;;;3.13;2.73;;;20.90;70.90;;;;;;4971299;28;21074;-67
2022/07/15 05:01:05;;;;;;;6.40;2.60;;;20.90;70.50;;;;;;4987180;28;20666;-67
2022/07/15 05:03:32;;;;;;;4.70;2.37;;;21.20;69.90;;;;;;4990478;28;21031;-67
2022/07/15 05:05:58;;;;;;;2.47;2.37;;;21.40;69.40;;;;;;4988990;28;20673;-68
2022/07/15 05:08:25;;;;;;;3.10;2.27;;;21.70;68.80;;;;;;4990350;28;20729;-65
2022/07/15 05:10:52;;;;;;;5.30;2.20;;;21.90;68.10;;;;;;4990788;28;21333;-69
2022/07/15 05:13:19;;;;;;;2.50;2.30;;;22.00;67.50;;;;;;4992900;28;21006;-68
2022/07/15 05:15:45;;;;;;;2.73;2.37;;;22.30;67.10;;;;;;4992364;28;20730;-68
2022/07/15 05:18:12;;;;;;;2.40;2.20;;;22.60;66.10;;;;;;4989883;28;21190;-66
2022/07/15 05:20:39;;;;;;;7.53;2.27;;;22.70;65.50;;;;;;4990128;28;20666;-67
2022/07/15 05:23:06;;;;;;;6.50;2.50;;;22.70;65.10;;;;;;4988474;28;21278;-68
2022/07/15 05:25:33;;;;;;;2.60;2.40;;;22.70;65.40;;;;;;4988049;28;20662;-68
2022/07/15 05:27:59;;;;;;;5.50;3.07;;;22.60;65.60;;;;;;4990551;28;20599;-66
2022/07/15 05:30:26;;;;;;;2.60;2.40;;;22.40;65.60;;;;;;4984094;28;20685;-68
2022/07/15 05:32:53;;;;;;;2.50;2.30;;;22.30;66.00;;;;;;4981939;28;20636;-67
2022/07/15 05:35:21;;;;;;;2.40;2.20;;;22.20;66.30;;;;;;4984085;28;21181;-69
2022/07/15 05:37:47;;;;;;;2.90;2.20;;;22.00;66.80;;;;;;4989713;28;20632;-67
2022/07/15 05:40:15;;;;;;;2.60;2.40;;;21.90;66.90;;;;;;5002866;23;20671;-65
2022/07/15 05:42:42;;;;;;;7.17;2.63;;;22.00;66.80;;;;;;4990185;28;21326;-66
2022/07/15 05:45:10;;;;;;;2.73;2.57;;;22.00;66.90;;;;;;4996574;28;20674;-63
2022/07/15 05:47:36;;;;;;;8.27;2.33;;;22.20;66.60;;;;;;4987739;28;20626;-65
2022/07/15 05:50:04;;;;;;;4.17;2.20;;;22.20;66.00;;;;;;4988456;28;21010;-65
2022/07/15 05:52:31;;;;;;;4.47;2.13;;;22.30;66.60;;;;;;4990386;28;20593;-64
2022/07/15 05:54:57;;;;;;;2.57;2.37;;;22.80;65.20;;;;;;4983909;28;20634;-66
2022/07/15 05:57:24;;;;;;;3.30;2.63;;;23.40;63.90;;;;;;4982469;28;20613;-66
2022/07/15 05:59:51;;;;;;;4.20;2.27;;;23.60;63.30;;;;;;4979107;28;20648;-67
2022/07/15 06:02:18;;;;;;;3.53;3.03;;;24.00;62.40;;;;;;4981216;28;20673;-66
2022/07/15 06:04:45;;;;;;;2.70;2.37;;;24.40;61.40;;;;;;4984175;28;20663;-68
2022/07/15 06:07:12;;;;;;;2.33;2.17;;;24.90;60.80;;;;;;4985458;28;20618;-65
2022/07/15 06:09:39;;;;;;;2.58;2.38;;;25.40;60.10;;;;;;4987550;28;24444;-65
2022/07/15 06:12:06;;;;;;;3.33;2.33;;;25.60;58.70;;;;;;4990690;28;20497;-66
2022/07/15 06:14:32;;;;;;;2.17;1.93;;;26.10;58.10;;;;;;4990834;28;20622;-65
2022/07/15 06:17:05;;;;;;;2.00;1.90;;;26.70;57.00;;;;;;4989755;28;20639;-68
2022/07/15 06:19:31;;;;;;;8.23;1.97;;;27.40;56.20;;;;;;4988734;28;20646;-66
2022/07/15 06:21:59;;;;;;;1.90;1.80;;;27.60;54.20;;;;;;4988601;28;21502;-66
2022/07/15 06:24:26;;;;;;;2.20;2.10;;;27.20;54.00;;;;;;4988139;28;20729;-66
2022/07/15 06:26:53;;;;;;;2.57;2.37;;;27.60;53.80;;;;;;4990248;28;20717;-65
2022/07/15 06:29:20;;;;;;;1.83;1.73;;;27.90;53.50;;;;;;4985478;28;20631;-67
2022/07/15 06:31:47;;;;;;;2.50;2.00;;;27.20;53.60;;;;;;4988840;28;20662;-65
2022/07/15 06:34:14;;;;;;;1.80;1.70;;;27.10;54.10;;;;;;4989651;28;20821;-65
2022/07/15 06:36:41;;;;;;;2.47;2.37;;;26.70;54.80;;;;;;4987601;28;20718;-65
2022/07/15 06:39:07;;;;;;;1.83;1.70;;;26.70;54.60;;;;;;4991506;28;21219;-65
2022/07/15 06:41:34;;;;;;;1.80;1.70;;;25.80;55.50;;;;;;4991816;28;20672;-66
2022/07/15 06:44:01;;;;;;;1.97;1.87;;;25.40;56.70;;;;;;4992214;28;20626;-65
2022/07/15 06:46:28;;;;;;;1.83;1.80;;;25.40;57.00;;;;;;4991939;28;20666;-68
2022/07/15 06:48:56;;;;;;;3.33;1.87;;;26.30;56.40;;;;;;4989032;28;20627;-65
2022/07/15 06:51:22;;;;;;;4.60;1.40;;;27.90;53.90;;;;;;4990365;28;20697;-66
2022/07/15 06:53:49;;;;;;;1.70;1.60;;;29.50;52.20;;;;;;4992091;28;20611;-65
2022/07/15 06:56:16;;;;;;;2.50;1.90;;;30.80;50.10;;;;;;4993357;28;21057;-65
2022/07/15 06:58:44;;;;;;;5.30;2.30;;;31.80;48.90;;;;;;4990915;28;24453;-65
2022/07/15 07:01:11;;;;;;;3.10;2.10;;;32.00;48.00;;;;;;4991505;28;24455;-65
2022/07/15 07:03:38;;;;;;;3.93;2.17;;;30.90;48.60;;;;;;4991982;28;20192;-64
2022/07/15 07:06:25;;;;;;;2.13;1.90;;;29.70;50.10;;;;;;4993282;28;20670;-65
2022/07/15 07:08:52;;;;;;;3.50;1.80;;;29.80;50.70;;;;;;4990396;28;21012;-67
2022/07/15 07:11:19;;;;;;;1.70;1.60;;;30.70;49.50;;;;;;4993823;28;20725;-67
2022/07/15 07:13:48;;;;;;;2.10;2.00;;;31.70;47.90;;;;;;4991967;28;20627;-62
2022/07/15 07:16:15;;;;;;;1.70;1.70;;;32.70;46.90;;;;;;4993956;28;21157;-66
2022/07/15 07:18:45;;;;;;;2.67;2.07;;;33.40;45.60;;;;;;4991838;28;20634;-64
2022/07/15 07:21:13;;;;;;;4.47;2.20;;;33.00;45.40;;;;;;4993185;28;21057;-64
2022/07/15 07:23:40;;;;;;;4.30;1.80;;;31.70;46.10;;;;;;4991762;28;20652;-62
2022/07/15 07:26:09;;;;;;;2.13;1.70;;;30.80;47.40;;;;;;4993633;28;20641;-64
2022/07/15 07:28:39;;;;;;;2.40;1.90;;;31.40;47.10;;;;;;4990346;28;21211;-64
2022/07/15 07:31:11;;;;;;;3.80;1.70;;;32.90;45.80;;;;;;4992392;28;20670;-64
2022/07/15 07:33:40;;;;;;;2.13;1.87;;;34.40;44.20;;;;;;4991178;28;20625;-65
2022/07/15 07:36:08;;;;;;;1.70;1.67;;;34.50;43.80;;;;;;4993076;28;20590;-64
2022/07/15 07:38:37;;;;;;;4.27;1.97;;;34.20;43.30;;;;;;4991371;28;20718;-64
2022/07/15 07:41:04;;;;;;;2.87;1.80;;;33.00;44.30;;;;;;4985706;28;20678;-64
2022/07/15 07:43:34;;;;;;;1.50;1.50;;;33.10;44.50;;;;;;4990874;28;20638;-65
2022/07/15 07:46:01;;;;;;;3.23;1.70;;;34.10;43.90;;;;;;4990589;28;20717;-65
2022/07/15 07:48:30;;;;;;;2.10;1.63;;;35.40;42.50;;;;;;4989460;28;20614;-63
2022/07/15 07:50:57;;;;;;;2.00;1.80;;;35.70;42.00;;;;;;4990789;28;20753;-65
2022/07/15 07:53:24;;;;;;;1.37;1.37;;;35.00;42.00;;;;;;4991706;28;20591;-67
2022/07/15 07:55:51;;;;;;;1.90;1.80;;;33.60;43.20;;;;;;4989420;28;20639;-69
2022/07/15 07:58:20;;;;;;;4.93;1.70;;;34.00;43.50;;;;;;4992164;28;20725;-65
2022/07/15 08:00:47;;;;;;;1.30;1.30;;;35.20;42.50;;;;;;4986713;28;20724;-65
2022/07/15 08:03:15;;;;;;;1.67;1.43;;;36.40;41.50;;;;;;4990078;28;20730;-68
2022/07/15 08:05:42;;;;;;;2.40;1.67;;;37.30;40.70;;;;;;4974739;28;20678;-67
2022/07/15 08:08:17;;;;;;;1.80;1.70;;;38.00;39.90;;;;;;4992519;28;20623;-65
2022/07/15 08:10:48;;;;;;;2.83;1.80;;;38.50;39.60;;;;;;4993032;28;20639;-65
2022/07/15 08:13:20;;;;;;;6.10;1.80;;;38.70;40.10;;;;;;4991047;28;20635;-64
2022/07/15 08:15:46;;;;;;;3.50;1.70;;;38.90;39.30;;;;;;4993133;28;20689;-66
2022/07/15 08:18:18;;;;;;;1.70;1.60;;;38.10;39.60;;;;;;4988660;28;20660;-66
2022/07/15 08:20:45;;;;;;;1.93;1.70;;;38.00;40.10;;;;;;4988062;28;20665;-67
2022/07/15 08:23:19;;;;;;;2.20;2.00;;;38.10;39.50;;;;;;4990916;28;20637;-66
2022/07/15 08:25:46;;;;;;;2.50;1.73;;;37.80;39.40;;;;;;4992174;28;20642;-66
2022/07/15 08:28:13;;;;;;;3.37;1.97;;;38.00;39.30;;;;;;4988757;28;20627;-63
2022/07/15 08:30:40;;;;;;;1.50;1.40;;;38.70;39.00;;;;;;4989789;28;20754;-65
2022/07/15 08:33:07;;;;;;;2.00;1.67;;;37.70;39.40;;;;;;4990831;28;20618;-67
2022/07/15 08:35:35;;;;;;;3.90;1.87;;;35.10;41.00;;;;;;4972578;28;20642;-66
2022/07/15 08:38:06;;;;;;;4.10;1.90;;;33.20;43.20;;;;;;4985066;28;20718;-65
2022/07/15 08:40:34;;;;;;;4.97;1.70;;;32.10;44.30;;;;;;4986508;28;20658;-65
2022/07/15 08:43:05;;;;;;;1.80;1.70;;;32.60;44.80;;;;;;4989827;28;20729;-65
2022/07/15 08:45:33;;;;;;;6.73;2.00;;;35.00;42.80;;;;;;4991464;28;20639;-65
2022/07/15 08:48:02;;;;;;;2.00;1.90;;;36.50;40.80;;;;;;4990451;28;20646;-65
2022/07/15 08:50:30;;;;;;;2.47;1.90;;;37.60;40.10;;;;;;4986453;28;20667;-65
2022/07/15 08:52:57;;;;;;;2.23;1.90;;;37.70;40.10;;;;;;4989856;28;20733;-66
2022/07/15 08:55:24;;;;;;;2.33;1.93;;;35.50;40.90;;;;;;4991750;28;20675;-66
2022/07/15 08:57:53;;;;;;;1.73;1.63;;;35.20;41.60;;;;;;4991231;28;20653;-65
2022/07/15 09:00:22;;;;;;;1.50;1.40;;;34.30;42.00;;;;;;4990275;28;20690;-66
2022/07/15 09:02:49;;;;;;;1.90;1.60;;;34.10;42.40;;;;;;4992428;28;20637;-66
2022/07/15 09:05:21;;;;;;;2.03;1.57;;;33.40;42.70;;;;;;4989113;28;20682;-65
2022/07/15 09:08:08;;;;;;;1.40;1.40;;;32.80;43.50;;;;;;4990154;28;20665;-65
2022/07/15 09:10:50;;;;;;;1.40;1.40;;;35.20;42.20;;;;;;4991262;28;21238;-66
2022/07/15 09:13:28;;;;;;;2.37;1.37;;;38.50;39.50;;;;;;4991772;28;20622;-65
2022/07/15 09:15:56;;;;;;;1.70;1.27;;;38.30;38.70;;;;;;4990303;28;20737;-65
2022/07/15 09:18:26;;;;;;;1.60;1.50;;;39.00;38.40;;;;;;4989872;28;20601;-64
2022/07/15 09:20:53;;;;;;;1.50;1.40;;;38.90;38.10;;;;;;4991486;28;20697;-65
2022/07/15 09:23:29;;;;;;;2.60;1.77;;;37.60;38.60;;;;;;4991507;28;20733;-65
2022/07/15 09:26:20;;;;;;;3.37;1.80;;;37.40;39.00;;;;;;4989451;28;20682;-65
2022/07/15 09:28:49;;;;;;;4.03;2.10;;;36.90;39.10;;;;;;4990810;28;20614;-65
2022/07/15 09:34:23;;;;;;;2.03;1.47;;;37.10;38.80;;;;;;4988844;28;20642;-66
2022/07/15 09:36:54;;;;;;;3.40;1.50;;;36.50;39.50;;;;;;4989218;28;21019;-65
2022/07/15 09:39:22;;;;;;;1.87;1.77;;;36.20;40.20;;;;;;4989415;28;21209;-66
2022/07/15 09:41:50;;;;;;;4.60;1.77;;;38.10;39.30;;;;;;4989849;28;20749;-66
2022/07/15 09:44:22;;;;;;;1.53;1.33;;;39.90;37.90;;;;;;4986874;28;20645;-67
2022/07/15 09:46:59;;;;;;;1.60;1.60;;;40.40;36.90;;;;;;4990415;28;21118;-67
2022/07/15 09:49:26;;;;;;;4.10;2.10;;;40.60;37.10;;;;;;4988633;28;20652;-65
2022/07/15 09:51:56;;;;;;;3.60;2.00;;;40.30;37.10;;;;;;4989125;28;21284;-65
2022/07/15 09:54:24;;;;;;;2.13;1.60;;;38.70;37.60;;;;;;4990224;28;20623;-66
2022/07/15 09:56:52;;;;;;;2.40;1.60;;;37.80;38.80;;;;;;4991213;28;20632;-66
2022/07/15 09:59:19;;;;;;;4.60;1.63;;;37.00;39.40;;;;;;4989492;28;20634;-65
2022/07/15 10:01:47;;;;;;;2.00;1.90;;;37.60;39.00;;;;;;4991361;28;20650;-66
2022/07/15 10:04:16;;;;;;;2.40;1.67;;;37.30;39.40;;;;;;4989154;28;20642;-65
2022/07/15 10:06:46;;;;;;;1.80;1.70;;;36.00;40.10;;;;;;4990701;28;20747;-67
2022/07/15 10:09:35;;;;;;;2.40;2.20;;;36.70;39.40;;;;;;4990627;28;20738;-66
2022/07/15 10:12:13;;;;;;;2.37;2.10;;;35.60;40.00;;;;;;4995837;28;20654;-64
2022/07/15 10:15:07;;;;;;;2.40;1.83;;;33.70;41.50;;;;;;4994750;28;20629;-65
2022/07/15 10:17:57;;;;;;;2.27;1.67;;;33.90;41.90;;;;;;4994017;28;20626;-66
2022/07/15 10:20:43;;;;;;;3.90;1.80;;;34.70;41.80;;;;;;4992390;28;20769;-66
2022/07/15 10:23:48;;;;;;;2.73;1.90;;;35.50;41.30;;;;;;4990951;28;20622;-66
2022/07/15 10:27:01;;;;;;;2.37;2.17;;;35.40;41.00;;;;;;4995755;28;20689;-66
2022/07/15 10:29:32;;;;;;;3.23;2.10;;;34.90;41.50;;;;;;4992176;28;20613;-66
2022/07/15 10:32:00;;;;;;;1.67;1.57;;;33.30;42.80;;;;;;4989175;28;21321;-65
2022/07/15 10:34:35;;;;;;;2.67;2.57;;;32.30;43.60;;;;;;4989332;28;20646;-66
2022/07/15 10:37:10;;;;;;;2.13;1.93;;;31.30;44.90;;;;;;4993813;28;20681;-66
2022/07/15 10:39:46;;;;;;;3.13;2.13;;;30.50;45.90;;;;;;4973957;28;20637;-66
2022/07/15 10:42:13;;;;;;;4.63;1.93;;;30.30;46.40;;;;;;4994185;28;20744;-65
2022/07/15 10:44:58;;;;;;;2.27;2.07;;;30.10;46.60;;;;;;4994776;28;20626;-66
2022/07/15 10:47:25;;;;;;;2.57;2.30;;;29.40;47.40;;;;;;4992366;28;20658;-65
2022/07/15 10:49:53;;;;;;;2.77;2.60;;;28.60;48.10;;;;;;4991538;28;21030;-66
2022/07/15 10:52:29;;;;;;;2.23;2.13;;;28.40;48.30;;;;;;4993628;28;20730;-66
2022/07/15 10:54:55;;;;;;;4.37;2.30;;;28.40;48.70;;;;;;4993622;28;20610;-63
2022/07/15 10:57:40;;;;;;;2.70;2.50;;;28.50;49.00;;;;;;4995199;28;20618;-67
2022/07/15 11:00:32;;;;;;;2.63;2.43;;;28.70;48.60;;;;;;4990486;28;20696;-65
2022/07/15 11:03:12;;;;;;;2.67;2.57;;;28.60;48.30;;;;;;4981171;28;20651;-67
2022/07/15 11:05:48;;;;;;;5.80;2.50;;;28.00;49.00;;;;;;4990374;28;20673;-66
2022/07/15 11:08:34;;;;;;;5.00;2.70;;;27.90;49.20;;;;;;4993684;28;20614;-66
2022/07/15 11:11:16;;;;;;;3.23;2.80;;;28.10;49.30;;;;;;4994242;28;20654;-66
2022/07/15 11:13:49;;;;;;;3.70;2.33;;;28.10;49.10;;;;;;4992216;28;21206;-66
2022/07/15 11:16:20;;;;;;;3.03;2.43;;;27.80;49.40;;;;;;4993934;28;20622;-66
2022/07/15 11:18:53;;;;;;;3.87;2.80;;;27.80;49.50;;;;;;4991359;28;20626;-67
2022/07/15 11:21:21;;;;;;;2.90;2.60;;;27.50;49.80;;;;;;4993016;28;20665;-65
2022/07/15 11:23:50;;;;;;;4.40;2.93;;;27.50;49.80;;;;;;4993551;28;20625;-65
2022/07/15 11:26:17;;;;;;;3.57;2.97;;;27.30;50.40;;;;;;4994440;28;21268;-66
2022/07/15 11:28:54;;;;;;;2.70;2.50;;;27.20;50.70;;;;;;4992018;28;20645;-66
2022/07/15 11:31:22;;;;;;;2.93;2.50;;;27.40;50.30;;;;;;4988637;28;21404;-66
2022/07/15 11:33:53;;;;;;;4.77;2.80;;;27.50;50.60;;;;;;4985897;28;20692;-67
2022/07/15 11:36:22;;;;;;;3.10;2.90;;;27.20;50.60;;;;;;4961888;28;20738;-65
2022/07/15 11:38:51;;;;;;;2.47;2.27;;;27.00;50.90;;;;;;4990459;28;20637;-65
2022/07/15 11:46:50;;;;;;;4.03;2.47;;;26.50;51.20;;;;;;5012478;28;20295;-67
2022/07/15 11:49:41;;;;;;;3.10;2.90;;;26.20;51.20;;;;;;5010911;28;20668;-70
2022/07/15 11:52:11;;;;;;;2.90;2.70;;;26.10;50.80;;;;;;5004623;28;20665;-67
2022/07/15 11:54:40;;;;;;;2.37;2.27;;;26.00;51.70;;;;;;5012362;28;20621;-69
2022/07/15 11:57:10;;;;;;;3.20;2.90;;;26.10;51.50;;;;;;5012954;28;20635;-66
2022/07/15 11:59:37;;;;;;;2.73;2.53;;;26.00;51.90;;;;;;5008264;28;21218;-67
2022/07/15 12:02:10;;;;;;;2.97;2.77;;;25.90;52.00;;;;;;5013176;28;20642;-66
2022/07/15 12:04:38;;;;;;;4.43;3.20;;;25.90;51.80;;;;;;5010223;28;21029;-66
2022/07/15 12:07:05;;;;;;;3.80;2.53;;;26.00;51.70;;;;;;5011298;28;20648;-68
2022/07/15 12:09:46;;;;;;;3.60;2.97;;;26.10;51.80;;;;;;5009167;28;20618;-67
2022/07/15 12:12:14;;;;;;;3.83;3.27;;;26.00;51.90;;;;;;4995954;28;21079;-67
2022/07/15 12:14:42;;;;;;;3.77;2.90;;;25.90;51.70;;;;;;5011715;28;21048;-65
2022/07/15 12:17:09;;;;;;;4.03;2.93;;;25.70;52.00;;;;;;5012859;28;20677;-66
2022/07/15 12:19:36;;;;;;;3.53;3.23;;;25.80;52.50;;;;;;5009406;28;20637;-67
2022/07/15 12:22:08;;;;;;;3.13;2.93;;;25.90;52.30;;;;;;5012167;28;21247;-67
2022/07/15 12:24:51;;;;;;;3.37;2.50;;;25.90;51.90;;;;;;5012183;28;20594;-66
2022/07/15 12:27:19;;;;;;;3.43;3.07;;;25.90;51.40;;;;;;5011099;28;20692;-66
2022/07/15 12:30:01;;;;;;;3.73;2.70;;;25.80;50.90;;;;;;5012200;28;20596;-67
2022/07/15 12:32:34;;;;;;;2.97;2.70;;;25.90;50.80;;;;;;5011030;28;21006;-66
2022/07/15 12:35:04;;;;;;;3.13;2.53;;;25.90;51.70;;;;;;5008016;28;21254;-68
2022/07/15 12:37:34;;;;;;;6.30;3.00;;;26.00;51.90;;;;;;5010127;28;20744;-67
2022/07/15 12:40:03;;;;;;;3.53;3.20;;;26.00;52.20;;;;;;5006818;28;21028;-68
2022/07/15 12:42:51;;;;;;;2.90;2.53;;;25.70;52.00;;;;;;5009024;28;20717;-67
2022/07/15 12:45:20;;;;;;;3.10;2.90;;;25.60;52.00;;;;;;5009266;28;20622;-67
2022/07/15 12:48:08;;;;;;;6.57;3.27;;;25.60;52.00;;;;;;5009423;28;20658;-66
2022/07/15 12:50:50;;;;;;;3.43;2.50;;;25.60;51.90;;;;;;5009321;28;20657;-65
2022/07/15 12:53:24;;;;;;;5.30;2.87;;;25.50;51.80;;;;;;5010329;28;20613;-66
2022/07/15 12:55:56;;;;;;;4.50;3.10;;;25.40;52.50;;;;;;5009234;28;20640;-67
2022/07/15 12:58:26;;;;;;;3.20;3.00;;;25.40;51.90;;;;;;5011716;28;20793;-67
2022/07/15 13:01:08;;;;;;;3.17;2.97;;;25.40;52.10;;;;;;5010930;28;20597;-67
2022/07/15 13:03:36;;;;;;;3.23;2.90;;;25.50;52.00;;;;;;5009689;28;20646;-67
2022/07/15 13:06:03;;;;;;;3.50;2.70;;;25.40;51.60;;;;;;5002422;28;21189;-67
2022/07/15 13:08:33;;;;;;;3.10;2.90;;;25.70;50.90;;;;;;4979451;28;21221;-67
2022/07/15 13:11:03;;;;;;;3.33;3.10;;;25.80;50.70;;;;;;5010296;28;20683;-66
2022/07/15 13:13:33;;;;;;;2.93;2.73;;;26.00;50.80;;;;;;5011998;28;20595;-66
2022/07/15 13:16:02;;;;;;;3.70;3.40;;;26.10;51.10;;;;;;5010223;28;24486;-67
2022/07/15 13:18:30;;;;;;;4.30;3.60;;;26.30;51.50;;;;;;5006155;28;24981;-65